sensor_id;sensor_type;location;lat;lon;timestamp;temperature;humidity
21473;DHT22;10898;48.072;11.682;2022-09-09T00:00:17;15.60;99.90
21473;DHT22;10898;48.072;11.682;2022-09-09T00:02:20;15.60;99.90
21473;DHT22;10898;48.072;11.682;2022-09-09T00:04:34;15.60;99.90
21473;DHT22;10898;48.072;11.682;2022-09-09T00:06:43;15.50;99.90
21473;DHT22;10898;48.072;11.682;2022-09-09T00:09:04;15.40;99.90
21473;DHT22;10898;48.072;11.682;2022-09-09T00:11:12;15.40;99.90
21473;DHT22;10898;48.072;11.682;2022-09-09T00:18:45;15.30;99.90
21473;DHT22;10898;48.072;11.682;2022-09-09T00:20:58;15.30;99.90
21473;DHT22;10898;48.072;11.682;2022-09-09T00:23:24;15.20;99.90
21473;DHT22;10898;48.072;11.682;2022-09-09T00:25:40;15.10;99.90
21473;DHT22;10898;48.072;11.682;2022-09-09T00:27:48;15.10;99.90
21473;DHT22;10898;48.072;11.682;2022-09-09T00:32:18;15.10;99.90
21473;DHT22;10898;48.072;11.682;2022-09-09T00:34:21;15.10;99.90
21473;DHT22;10898;48.072;11.682;2022-09-09T00:36:26;15.10;99.90
21473;DHT22;10898;48.072;11.682;2022-09-09T00:38:34;15.10;99.90
21473;DHT22;10898;48.072;11.682;2022-09-09T00:47:44;15.20;99.90
21473;DHT22;10898;48.072;11.682;2022-09-09T00:55:14;15.30;99.90
21473;DHT22;10898;48.072;11.682;2022-09-09T00:57:25;15.30;99.90
21473;DHT22;10898;48.072;11.682;2022-09-09T01:01:37;15.40;99.90
21473;DHT22;10898;48.072;11.682;2022-09-09T01:03:51;15.40;99.90
21473;DHT22;10898;48.072;11.682;2022-09-09T01:06:13;15.50;99.90
21473;DHT22;10898;48.072;11.682;2022-09-09T01:08:52;15.50;99.90
21473;DHT22;10898;48.072;11.682;2022-09-09T01:10:56;15.50;99.90
21473;DHT22;10898;48.072;11.682;2022-09-09T01:13:04;15.50;99.90
21473;DHT22;10898;48.072;11.682;2022-09-09T01:15:20;15.50;99.90
21473;DHT22;10898;48.072;11.682;2022-09-09T01:17:32;15.60;99.90
21473;DHT22;10898;48.072;11.682;2022-09-09T01:19:49;15.60;99.90
21473;DHT22;10898;48.072;11.682;2022-09-09T01:22:12;15.60;99.90
21473;DHT22;10898;48.072;11.682;2022-09-09T01:24:35;15.70;99.90
21473;DHT22;10898;48.072;11.682;2022-09-09T01:26:42;15.60;99.90
21473;DHT22;10898;48.072;11.682;2022-09-09T01:28:46;15.70;99.90
21473;DHT22;10898;48.072;11.682;2022-09-09T01:30:49;15.70;99.90
21473;DHT22;10898;48.072;11.682;2022-09-09T01:32:54;15.70;99.90
21473;DHT22;10898;48.072;11.682;2022-09-09T01:34:57;15.70;99.90
21473;DHT22;10898;48.072;11.682;2022-09-09T01:37:02;15.70;99.90
21473;DHT22;10898;48.072;11.682;2022-09-09T01:39:09;15.80;99.90
21473;DHT22;10898;48.072;11.682;2022-09-09T01:41:11;15.80;99.90
21473;DHT22;10898;48.072;11.682;2022-09-09T01:43:13;15.80;99.90
21473;DHT22;10898;48.072;11.682;2022-09-09T01:45:15;15.80;99.90
21473;DHT22;10898;48.072;11.682;2022-09-09T01:47:17;15.80;99.90
21473;DHT22;10898;48.072;11.682;2022-09-09T01:49:19;15.80;99.90
21473;DHT22;10898;48.072;11.682;2022-09-09T01:51:21;15.80;99.90
21473;DHT22;10898;48.072;11.682;2022-09-09T01:53:23;15.80;99.90
21473;DHT22;10898;48.072;11.682;2022-09-09T01:56:02;15.80;99.90
21473;DHT22;10898;48.072;11.682;2022-09-09T01:58:22;15.80;99.90
21473;DHT22;10898;48.072;11.682;2022-09-09T02:00:28;15.80;99.90
21473;DHT22;10898;48.072;11.682;2022-09-09T02:09:36;15.90;99.90
21473;DHT22;10898;48.072;11.682;2022-09-09T02:11:41;15.80;99.90
21473;DHT22;10898;48.072;11.682;2022-09-09T02:13:46;15.80;99.90
21473;DHT22;10898;48.072;11.682;2022-09-09T02:17:54;15.90;99.90
21473;DHT22;10898;48.072;11.682;2022-09-09T02:20:05;15.90;99.90
21473;DHT22;10898;48.072;11.682;2022-09-09T02:22:09;15.90;99.90
21473;DHT22;10898;48.072;11.682;2022-09-09T02:24:14;15.90;99.90
21473;DHT22;10898;48.072;11.682;2022-09-09T02:26:17;15.90;99.90
21473;DHT22;10898;48.072;11.682;2022-09-09T02:28:23;15.90;99.90
21473;DHT22;10898;48.072;11.682;2022-09-09T02:30:28;15.90;99.90
21473;DHT22;10898;48.072;11.682;2022-09-09T02:32:33;15.90;99.90
21473;DHT22;10898;48.072;11.682;2022-09-09T02:34:37;15.90;99.90
21473;DHT22;10898;48.072;11.682;2022-09-09T02:36:42;15.90;99.90
21473;DHT22;10898;48.072;11.682;2022-09-09T02:38:47;15.90;99.90
21473;DHT22;10898;48.072;11.682;2022-09-09T02:40:54;15.90;99.90
21473;DHT22;10898;48.072;11.682;2022-09-09T02:42:56;15.90;99.90
21473;DHT22;10898;48.072;11.682;2022-09-09T02:44:58;15.90;99.90
21473;DHT22;10898;48.072;11.682;2022-09-09T02:49:24;15.90;99.90
21473;DHT22;10898;48.072;11.682;2022-09-09T02:53:50;15.90;99.90
21473;DHT22;10898;48.072;11.682;2022-09-09T02:55:58;15.90;99.90
21473;DHT22;10898;48.072;11.682;2022-09-09T02:58:02;15.90;99.90
21473;DHT22;10898;48.072;11.682;2022-09-09T03:00:07;15.90;99.90
21473;DHT22;10898;48.072;11.682;2022-09-09T03:02:10;15.90;99.90
21473;DHT22;10898;48.072;11.682;2022-09-09T03:04:13;15.90;99.90
21473;DHT22;10898;48.072;11.682;2022-09-09T03:06:15;15.90;99.90
21473;DHT22;10898;48.072;11.682;2022-09-09T03:08:17;15.90;99.90
21473;DHT22;10898;48.072;11.682;2022-09-09T03:10:19;16.00;99.90
21473;DHT22;10898;48.072;11.682;2022-09-09T03:12:20;15.90;99.90
21473;DHT22;10898;48.072;11.682;2022-09-09T03:14:23;15.90;99.90
21473;DHT22;10898;48.072;11.682;2022-09-09T03:16:26;15.90;99.90
21473;DHT22;10898;48.072;11.682;2022-09-09T03:18:28;16.00;99.90
21473;DHT22;10898;48.072;11.682;2022-09-09T03:20:30;16.00;99.90
21473;DHT22;10898;48.072;11.682;2022-09-09T03:22:32;16.00;99.90
21473;DHT22;10898;48.072;11.682;2022-09-09T03:24:34;16.00;99.90
21473;DHT22;10898;48.072;11.682;2022-09-09T03:26:36;16.00;99.90
21473;DHT22;10898;48.072;11.682;2022-09-09T03:28:39;15.90;99.90
21473;DHT22;10898;48.072;11.682;2022-09-09T03:30:40;15.90;99.90
21473;DHT22;10898;48.072;11.682;2022-09-09T03:32:42;15.90;99.90
21473;DHT22;10898;48.072;11.682;2022-09-09T03:34:49;15.90;99.90
21473;DHT22;10898;48.072;11.682;2022-09-09T03:36:51;15.90;99.90
21473;DHT22;10898;48.072;11.682;2022-09-09T03:38:53;15.90;99.90
21473;DHT22;10898;48.072;11.682;2022-09-09T03:40:56;15.80;99.90
21473;DHT22;10898;48.072;11.682;2022-09-09T03:43:01;15.80;99.90
21473;DHT22;10898;48.072;11.682;2022-09-09T03:45:04;15.80;99.90
21473;DHT22;10898;48.072;11.682;2022-09-09T03:47:06;15.80;99.90
21473;DHT22;10898;48.072;11.682;2022-09-09T03:49:08;15.80;99.90
21473;DHT22;10898;48.072;11.682;2022-09-09T03:51:12;15.80;99.90
21473;DHT22;10898;48.072;11.682;2022-09-09T03:53:15;15.80;99.90
21473;DHT22;10898;48.072;11.682;2022-09-09T03:55:17;15.70;99.90
21473;DHT22;10898;48.072;11.682;2022-09-09T03:57:19;15.70;99.90
21473;DHT22;10898;48.072;11.682;2022-09-09T03:59:21;15.70;99.90
21473;DHT22;10898;48.072;11.682;2022-09-09T04:01:24;15.60;99.90
21473;DHT22;10898;48.072;11.682;2022-09-09T04:03:27;15.60;99.90
21473;DHT22;10898;48.072;11.682;2022-09-09T04:05:29;15.60;99.90
21473;DHT22;10898;48.072;11.682;2022-09-09T04:07:31;15.60;99.90
21473;DHT22;10898;48.072;11.682;2022-09-09T04:09:34;15.60;99.90
21473;DHT22;10898;48.072;11.682;2022-09-09T04:11:36;15.60;99.90
21473;DHT22;10898;48.072;11.682;2022-09-09T04:13:38;15.60;99.90
21473;DHT22;10898;48.072;11.682;2022-09-09T04:15:41;15.60;99.90
21473;DHT22;10898;48.072;11.682;2022-09-09T04:17:43;15.60;99.90
21473;DHT22;10898;48.072;11.682;2022-09-09T04:19:44;15.60;99.90
21473;DHT22;10898;48.072;11.682;2022-09-09T04:21:46;15.60;99.90
21473;DHT22;10898;48.072;11.682;2022-09-09T04:23:51;15.50;99.90
21473;DHT22;10898;48.072;11.682;2022-09-09T04:25:54;15.60;99.90
21473;DHT22;10898;48.072;11.682;2022-09-09T04:27:57;15.60;99.90
21473;DHT22;10898;48.072;11.682;2022-09-09T04:29:59;15.60;99.90
21473;DHT22;10898;48.072;11.682;2022-09-09T04:32:01;15.60;99.90
21473;DHT22;10898;48.072;11.682;2022-09-09T04:34:03;15.50;99.90
21473;DHT22;10898;48.072;11.682;2022-09-09T04:36:07;15.50;99.90
21473;DHT22;10898;48.072;11.682;2022-09-09T04:38:08;15.50;99.90
21473;DHT22;10898;48.072;11.682;2022-09-09T04:40:10;15.50;99.90
21473;DHT22;10898;48.072;11.682;2022-09-09T04:42:12;15.50;99.90
21473;DHT22;10898;48.072;11.682;2022-09-09T04:44:14;15.40;99.90
21473;DHT22;10898;48.072;11.682;2022-09-09T04:46:17;15.40;99.90
21473;DHT22;10898;48.072;11.682;2022-09-09T04:48:20;15.40;99.90
21473;DHT22;10898;48.072;11.682;2022-09-09T04:50:22;15.40;99.90
21473;DHT22;10898;48.072;11.682;2022-09-09T04:52:24;15.40;99.90
21473;DHT22;10898;48.072;11.682;2022-09-09T04:54:26;15.40;99.90
21473;DHT22;10898;48.072;11.682;2022-09-09T04:56:29;15.40;99.90
21473;DHT22;10898;48.072;11.682;2022-09-09T04:58:31;15.40;99.90
21473;DHT22;10898;48.072;11.682;2022-09-09T05:00:34;15.40;99.90
21473;DHT22;10898;48.072;11.682;2022-09-09T05:02:37;15.40;99.90
21473;DHT22;10898;48.072;11.682;2022-09-09T05:04:40;15.30;99.90
21473;DHT22;10898;48.072;11.682;2022-09-09T05:06:42;15.40;99.90
21473;DHT22;10898;48.072;11.682;2022-09-09T05:08:44;15.40;99.90
21473;DHT22;10898;48.072;11.682;2022-09-09T05:10:46;15.40;99.90
21473;DHT22;10898;48.072;11.682;2022-09-09T05:12:54;15.40;99.90
21473;DHT22;10898;48.072;11.682;2022-09-09T05:14:56;15.40;99.90
21473;DHT22;10898;48.072;11.682;2022-09-09T05:16:58;15.40;99.90
21473;DHT22;10898;48.072;11.682;2022-09-09T05:18:59;15.50;99.90
21473;DHT22;10898;48.072;11.682;2022-09-09T05:21:01;15.50;99.90
21473;DHT22;10898;48.072;11.682;2022-09-09T05:23:03;15.50;99.90
21473;DHT22;10898;48.072;11.682;2022-09-09T05:25:05;15.50;99.90
21473;DHT22;10898;48.072;11.682;2022-09-09T05:27:07;15.50;99.90
21473;DHT22;10898;48.072;11.682;2022-09-09T05:29:09;15.60;99.90
21473;DHT22;10898;48.072;11.682;2022-09-09T05:31:12;15.60;99.90
21473;DHT22;10898;48.072;11.682;2022-09-09T05:33:14;15.60;99.90
21473;DHT22;10898;48.072;11.682;2022-09-09T05:35:16;15.60;99.90
21473;DHT22;10898;48.072;11.682;2022-09-09T05:37:20;15.70;99.90
21473;DHT22;10898;48.072;11.682;2022-09-09T05:39:22;15.70;99.90
21473;DHT22;10898;48.072;11.682;2022-09-09T05:41:24;15.70;99.90
21473;DHT22;10898;48.072;11.682;2022-09-09T05:43:26;15.70;99.90
21473;DHT22;10898;48.072;11.682;2022-09-09T05:45:28;15.80;99.90
21473;DHT22;10898;48.072;11.682;2022-09-09T05:47:30;15.80;99.90
21473;DHT22;10898;48.072;11.682;2022-09-09T05:49:32;15.70;99.90
21473;DHT22;10898;48.072;11.682;2022-09-09T05:51:33;15.80;99.90
21473;DHT22;10898;48.072;11.682;2022-09-09T05:53:36;15.80;99.90
21473;DHT22;10898;48.072;11.682;2022-09-09T05:55:38;15.80;99.90
21473;DHT22;10898;48.072;11.682;2022-09-09T05:57:40;15.80;99.90
21473;DHT22;10898;48.072;11.682;2022-09-09T05:59:41;15.90;99.90
21473;DHT22;10898;48.072;11.682;2022-09-09T06:01:43;15.90;99.90
21473;DHT22;10898;48.072;11.682;2022-09-09T06:03:48;15.90;99.90
21473;DHT22;10898;48.072;11.682;2022-09-09T06:05:58;16.00;99.90
21473;DHT22;10898;48.072;11.682;2022-09-09T06:08:00;16.00;99.90
21473;DHT22;10898;48.072;11.682;2022-09-09T06:10:02;16.00;99.90
21473;DHT22;10898;48.072;11.682;2022-09-09T06:12:04;16.00;99.90
21473;DHT22;10898;48.072;11.682;2022-09-09T06:14:06;16.10;99.90
21473;DHT22;10898;48.072;11.682;2022-09-09T06:16:10;16.10;99.90
21473;DHT22;10898;48.072;11.682;2022-09-09T06:18:13;16.20;99.90
21473;DHT22;10898;48.072;11.682;2022-09-09T06:20:14;16.20;99.90
21473;DHT22;10898;48.072;11.682;2022-09-09T06:22:16;16.20;99.90
21473;DHT22;10898;48.072;11.682;2022-09-09T06:24:18;16.20;99.90
21473;DHT22;10898;48.072;11.682;2022-09-09T06:26:32;16.20;99.90
21473;DHT22;10898;48.072;11.682;2022-09-09T06:28:34;16.30;99.90
21473;DHT22;10898;48.072;11.682;2022-09-09T06:30:37;16.20;99.90
21473;DHT22;10898;48.072;11.682;2022-09-09T06:32:39;16.20;99.90
21473;DHT22;10898;48.072;11.682;2022-09-09T06:34:41;16.20;99.90
21473;DHT22;10898;48.072;11.682;2022-09-09T06:36:43;16.20;99.90
21473;DHT22;10898;48.072;11.682;2022-09-09T06:38:46;16.30;99.90
21473;DHT22;10898;48.072;11.682;2022-09-09T06:40:52;16.30;99.90
21473;DHT22;10898;48.072;11.682;2022-09-09T06:42:59;16.30;99.90
21473;DHT22;10898;48.072;11.682;2022-09-09T06:45:02;16.40;99.90
21473;DHT22;10898;48.072;11.682;2022-09-09T06:47:03;16.40;99.90
21473;DHT22;10898;48.072;11.682;2022-09-09T06:49:06;16.40;99.90
21473;DHT22;10898;48.072;11.682;2022-09-09T06:51:09;16.40;99.90
21473;DHT22;10898;48.072;11.682;2022-09-09T06:53:15;16.50;99.90
21473;DHT22;10898;48.072;11.682;2022-09-09T06:55:18;16.50;99.90
21473;DHT22;10898;48.072;11.682;2022-09-09T06:57:19;16.50;99.90
21473;DHT22;10898;48.072;11.682;2022-09-09T06:59:37;16.50;99.90
21473;DHT22;10898;48.072;11.682;2022-09-09T07:01:41;16.50;99.90
21473;DHT22;10898;48.072;11.682;2022-09-09T07:03:47;16.60;99.90
21473;DHT22;10898;48.072;11.682;2022-09-09T07:05:56;16.60;99.90
21473;DHT22;10898;48.072;11.682;2022-09-09T07:07:58;16.60;99.90
21473;DHT22;10898;48.072;11.682;2022-09-09T07:10:00;16.60;99.90
21473;DHT22;10898;48.072;11.682;2022-09-09T07:12:02;16.70;99.90
21473;DHT22;10898;48.072;11.682;2022-09-09T07:14:04;16.70;99.90
21473;DHT22;10898;48.072;11.682;2022-09-09T07:16:09;16.70;99.90
21473;DHT22;10898;48.072;11.682;2022-09-09T07:18:11;16.70;99.90
21473;DHT22;10898;48.072;11.682;2022-09-09T07:20:13;16.70;99.90
21473;DHT22;10898;48.072;11.682;2022-09-09T07:22:16;16.80;99.90
21473;DHT22;10898;48.072;11.682;2022-09-09T07:24:18;16.80;99.90
21473;DHT22;10898;48.072;11.682;2022-09-09T07:26:22;16.80;99.90
21473;DHT22;10898;48.072;11.682;2022-09-09T07:28:25;16.80;99.90
21473;DHT22;10898;48.072;11.682;2022-09-09T07:30:27;16.80;99.90
21473;DHT22;10898;48.072;11.682;2022-09-09T07:32:30;16.90;99.90
21473;DHT22;10898;48.072;11.682;2022-09-09T07:34:32;16.90;99.90
21473;DHT22;10898;48.072;11.682;2022-09-09T07:36:38;16.90;99.90
21473;DHT22;10898;48.072;11.682;2022-09-09T07:38:43;16.90;99.90
21473;DHT22;10898;48.072;11.682;2022-09-09T07:40:46;16.90;99.90
21473;DHT22;10898;48.072;11.682;2022-09-09T07:42:48;16.90;99.90
21473;DHT22;10898;48.072;11.682;2022-09-09T07:44:50;16.90;99.90
21473;DHT22;10898;48.072;11.682;2022-09-09T07:46:56;16.80;99.90
21473;DHT22;10898;48.072;11.682;2022-09-09T07:48:58;16.90;99.90
21473;DHT22;10898;48.072;11.682;2022-09-09T07:51:21;16.80;99.90
21473;DHT22;10898;48.072;11.682;2022-09-09T07:53:23;16.90;99.90
21473;DHT22;10898;48.072;11.682;2022-09-09T07:55:25;16.80;99.90
21473;DHT22;10898;48.072;11.682;2022-09-09T07:57:31;16.80;99.90
21473;DHT22;10898;48.072;11.682;2022-09-09T07:59:32;16.80;99.90
21473;DHT22;10898;48.072;11.682;2022-09-09T08:01:37;16.80;99.90
21473;DHT22;10898;48.072;11.682;2022-09-09T08:03:40;16.80;99.90
21473;DHT22;10898;48.072;11.682;2022-09-09T08:05:42;16.90;99.90
21473;DHT22;10898;48.072;11.682;2022-09-09T08:07:44;16.90;99.90
21473;DHT22;10898;48.072;11.682;2022-09-09T08:09:47;16.90;99.90
21473;DHT22;10898;48.072;11.682;2022-09-09T08:11:49;16.90;99.90
21473;DHT22;10898;48.072;11.682;2022-09-09T08:13:51;16.90;99.90
21473;DHT22;10898;48.072;11.682;2022-09-09T08:16:07;17.00;99.90
21473;DHT22;10898;48.072;11.682;2022-09-09T08:18:09;17.00;99.90
21473;DHT22;10898;48.072;11.682;2022-09-09T08:20:11;17.00;99.90
21473;DHT22;10898;48.072;11.682;2022-09-09T08:22:13;17.00;99.90
21473;DHT22;10898;48.072;11.682;2022-09-09T08:24:15;17.10;99.90
21473;DHT22;10898;48.072;11.682;2022-09-09T08:26:18;17.20;99.90
21473;DHT22;10898;48.072;11.682;2022-09-09T08:28:23;17.20;99.90
21473;DHT22;10898;48.072;11.682;2022-09-09T08:30:25;17.20;99.90
21473;DHT22;10898;48.072;11.682;2022-09-09T08:32:28;17.30;99.90
21473;DHT22;10898;48.072;11.682;2022-09-09T08:34:30;17.30;99.90
21473;DHT22;10898;48.072;11.682;2022-09-09T08:36:36;17.40;99.90
21473;DHT22;10898;48.072;11.682;2022-09-09T08:38:38;17.40;99.90
21473;DHT22;10898;48.072;11.682;2022-09-09T08:40:45;17.40;99.90
21473;DHT22;10898;48.072;11.682;2022-09-09T08:42:53;17.40;99.90
21473;DHT22;10898;48.072;11.682;2022-09-09T08:45:03;17.40;99.90
21473;DHT22;10898;48.072;11.682;2022-09-09T08:49:51;17.50;99.90
21473;DHT22;10898;48.072;11.682;2022-09-09T08:51:58;17.50;99.90
21473;DHT22;10898;48.072;11.682;2022-09-09T08:54:02;17.40;99.90
21473;DHT22;10898;48.072;11.682;2022-09-09T08:56:14;17.40;99.90
21473;DHT22;10898;48.072;11.682;2022-09-09T08:58:20;17.50;99.90
21473;DHT22;10898;48.072;11.682;2022-09-09T09:00:30;17.50;99.90
21473;DHT22;10898;48.072;11.682;2022-09-09T09:03:03;17.50;99.90
21473;DHT22;10898;48.072;11.682;2022-09-09T09:07:34;17.50;99.90
21473;DHT22;10898;48.072;11.682;2022-09-09T09:12:01;17.60;99.90
21473;DHT22;10898;48.072;11.682;2022-09-09T09:14:10;17.50;99.90
21473;DHT22;10898;48.072;11.682;2022-09-09T09:18:23;17.50;99.90
21473;DHT22;10898;48.072;11.682;2022-09-09T09:20:40;17.50;99.90
21473;DHT22;10898;48.072;11.682;2022-09-09T09:22:49;17.60;99.90
21473;DHT22;10898;48.072;11.682;2022-09-09T09:24:54;17.60;99.90
21473;DHT22;10898;48.072;11.682;2022-09-09T09:26:57;17.60;99.90
21473;DHT22;10898;48.072;11.682;2022-09-09T09:29:12;17.60;99.90
21473;DHT22;10898;48.072;11.682;2022-09-09T09:31:13;17.70;99.90
21473;DHT22;10898;48.072;11.682;2022-09-09T09:33:26;17.70;99.90
21473;DHT22;10898;48.072;11.682;2022-09-09T09:35:29;17.80;99.90
21473;DHT22;10898;48.072;11.682;2022-09-09T09:37:32;17.70;99.90
21473;DHT22;10898;48.072;11.682;2022-09-09T09:39:37;17.70;99.90
21473;DHT22;10898;48.072;11.682;2022-09-09T09:42:09;17.80;99.90
21473;DHT22;10898;48.072;11.682;2022-09-09T09:46:24;17.80;99.90
21473;DHT22;10898;48.072;11.682;2022-09-09T09:48:27;17.80;99.90
21473;DHT22;10898;48.072;11.682;2022-09-09T09:50:30;17.90;99.90
21473;DHT22;10898;48.072;11.682;2022-09-09T09:52:33;17.90;99.90
21473;DHT22;10898;48.072;11.682;2022-09-09T09:54:41;17.90;99.90
21473;DHT22;10898;48.072;11.682;2022-09-09T09:56:44;17.90;99.90
21473;DHT22;10898;48.072;11.682;2022-09-09T10:00:52;17.90;99.90
21473;DHT22;10898;48.072;11.682;2022-09-09T10:02:54;17.80;99.90
21473;DHT22;10898;48.072;11.682;2022-09-09T10:05:15;17.90;99.90
21473;DHT22;10898;48.072;11.682;2022-09-09T10:07:20;17.90;99.90
21473;DHT22;10898;48.072;11.682;2022-09-09T10:11:49;17.90;99.90
21473;DHT22;10898;48.072;11.682;2022-09-09T10:20:58;18.00;99.90
21473;DHT22;10898;48.072;11.682;2022-09-09T10:30:50;18.00;99.90
21473;DHT22;10898;48.072;11.682;2022-09-09T10:34:58;17.90;99.90
21473;DHT22;10898;48.072;11.682;2022-09-09T10:37:06;17.90;99.90
21473;DHT22;10898;48.072;11.682;2022-09-09T10:44:01;18.00;99.90
21473;DHT22;10898;48.072;11.682;2022-09-09T10:51:23;18.10;99.90
21473;DHT22;10898;48.072;11.682;2022-09-09T10:53:42;18.20;99.90
21473;DHT22;10898;48.072;11.682;2022-09-09T10:56:07;18.20;99.90
21473;DHT22;10898;48.072;11.682;2022-09-09T10:58:23;18.30;99.90
21473;DHT22;10898;48.072;11.682;2022-09-09T11:00:49;18.40;99.90
21473;DHT22;10898;48.072;11.682;2022-09-09T11:03:03;18.40;99.90
21473;DHT22;10898;48.072;11.682;2022-09-09T11:07:10;18.50;99.90
21473;DHT22;10898;48.072;11.682;2022-09-09T11:09:19;18.50;99.90
21473;DHT22;10898;48.072;11.682;2022-09-09T11:11:31;18.60;99.90
21473;DHT22;10898;48.072;11.682;2022-09-09T11:15:50;18.60;99.90
21473;DHT22;10898;48.072;11.682;2022-09-09T11:17:56;18.70;99.90
21473;DHT22;10898;48.072;11.682;2022-09-09T11:19:58;18.70;99.90
21473;DHT22;10898;48.072;11.682;2022-09-09T11:24:30;18.80;99.90
21473;DHT22;10898;48.072;11.682;2022-09-09T11:26:55;18.80;99.90
21473;DHT22;10898;48.072;11.682;2022-09-09T11:31:51;18.80;99.90
21473;DHT22;10898;48.072;11.682;2022-09-09T11:34:15;18.90;99.90
21473;DHT22;10898;48.072;11.682;2022-09-09T11:36:34;18.80;99.90
21473;DHT22;10898;48.072;11.682;2022-09-09T11:38:45;18.90;99.90
21473;DHT22;10898;48.072;11.682;2022-09-09T11:40:59;18.90;99.90
21473;DHT22;10898;48.072;11.682;2022-09-09T11:45:24;19.00;99.90
21473;DHT22;10898;48.072;11.682;2022-09-09T11:47:30;19.10;99.90
21473;DHT22;10898;48.072;11.682;2022-09-09T11:51:40;19.20;99.90
21473;DHT22;10898;48.072;11.682;2022-09-09T11:53:50;19.20;99.90
21473;DHT22;10898;48.072;11.682;2022-09-09T11:56:11;19.30;99.90
21473;DHT22;10898;48.072;11.682;2022-09-09T11:58:17;19.40;99.90
21473;DHT22;10898;48.072;11.682;2022-09-09T12:00:51;19.40;99.90
21473;DHT22;10898;48.072;11.682;2022-09-09T12:02:54;19.50;99.90
21473;DHT22;10898;48.072;11.682;2022-09-09T12:05:08;19.50;99.90
21473;DHT22;10898;48.072;11.682;2022-09-09T12:07:23;19.60;99.90
21473;DHT22;10898;48.072;11.682;2022-09-09T12:11:33;19.70;99.90
21473;DHT22;10898;48.072;11.682;2022-09-09T12:13:35;19.70;99.90
21473;DHT22;10898;48.072;11.682;2022-09-09T12:15:47;19.70;99.90
21473;DHT22;10898;48.072;11.682;2022-09-09T12:17:51;19.70;99.90
21473;DHT22;10898;48.072;11.682;2022-09-09T12:20:19;19.70;99.90
21473;DHT22;10898;48.072;11.682;2022-09-09T12:22:48;19.80;99.90
21473;DHT22;10898;48.072;11.682;2022-09-09T12:25:12;19.70;99.90
21473;DHT22;10898;48.072;11.682;2022-09-09T12:27:31;19.70;99.90
21473;DHT22;10898;48.072;11.682;2022-09-09T12:30:02;19.80;99.90
21473;DHT22;10898;48.072;11.682;2022-09-09T12:34:12;19.80;99.90
21473;DHT22;10898;48.072;11.682;2022-09-09T12:36:18;19.90;99.90
21473;DHT22;10898;48.072;11.682;2022-09-09T12:38:39;20.00;99.90
21473;DHT22;10898;48.072;11.682;2022-09-09T12:40:42;20.00;99.90
21473;DHT22;10898;48.072;11.682;2022-09-09T12:42:43;20.10;99.90
21473;DHT22;10898;48.072;11.682;2022-09-09T12:44:57;20.10;99.90
21473;DHT22;10898;48.072;11.682;2022-09-09T12:47:02;20.20;99.90
21473;DHT22;10898;48.072;11.682;2022-09-09T12:49:05;20.20;99.90
21473;DHT22;10898;48.072;11.682;2022-09-09T12:51:19;20.30;99.90
21473;DHT22;10898;48.072;11.682;2022-09-09T12:53:35;20.40;99.90
21473;DHT22;10898;48.072;11.682;2022-09-09T12:55:38;20.40;99.90
21473;DHT22;10898;48.072;11.682;2022-09-09T12:57:40;20.40;99.90
21473;DHT22;10898;48.072;11.682;2022-09-09T12:59:44;20.50;99.90
21473;DHT22;10898;48.072;11.682;2022-09-09T13:01:57;20.50;99.90
21473;DHT22;10898;48.072;11.682;2022-09-09T13:04:00;20.60;99.90
21473;DHT22;10898;48.072;11.682;2022-09-09T13:06:16;20.60;99.90
21473;DHT22;10898;48.072;11.682;2022-09-09T13:08:20;20.60;99.90
21473;DHT22;10898;48.072;11.682;2022-09-09T13:10:25;20.60;99.90
21473;DHT22;10898;48.072;11.682;2022-09-09T13:12:48;20.60;99.90
21473;DHT22;10898;48.072;11.682;2022-09-09T13:14:55;20.60;99.90
21473;DHT22;10898;48.072;11.682;2022-09-09T13:17:02;20.60;99.90
21473;DHT22;10898;48.072;11.682;2022-09-09T13:19:14;20.60;99.90
21473;DHT22;10898;48.072;11.682;2022-09-09T13:21:18;20.60;99.90
21473;DHT22;10898;48.072;11.682;2022-09-09T13:23:21;20.50;99.90
21473;DHT22;10898;48.072;11.682;2022-09-09T13:27:31;20.50;99.90
21473;DHT22;10898;48.072;11.682;2022-09-09T13:29:33;20.50;99.90
21473;DHT22;10898;48.072;11.682;2022-09-09T13:31:36;20.40;99.90
21473;DHT22;10898;48.072;11.682;2022-09-09T13:33:38;20.40;99.90
21473;DHT22;10898;48.072;11.682;2022-09-09T13:35:59;20.40;99.90
21473;DHT22;10898;48.072;11.682;2022-09-09T13:38:08;20.40;99.90
21473;DHT22;10898;48.072;11.682;2022-09-09T13:40:21;20.40;99.90
21473;DHT22;10898;48.072;11.682;2022-09-09T13:42:27;20.30;99.90
21473;DHT22;10898;48.072;11.682;2022-09-09T13:44:34;20.40;99.90
21473;DHT22;10898;48.072;11.682;2022-09-09T13:46:39;20.10;99.90
21473;DHT22;10898;48.072;11.682;2022-09-09T13:48:57;20.00;99.90
21473;DHT22;10898;48.072;11.682;2022-09-09T13:51:04;20.00;99.90
21473;DHT22;10898;48.072;11.682;2022-09-09T13:53:07;19.90;99.90
21473;DHT22;10898;48.072;11.682;2022-09-09T13:55:09;19.90;99.90
21473;DHT22;10898;48.072;11.682;2022-09-09T13:57:21;19.80;99.90
21473;DHT22;10898;48.072;11.682;2022-09-09T13:59:23;19.80;99.90
21473;DHT22;10898;48.072;11.682;2022-09-09T14:01:38;19.70;99.90
21473;DHT22;10898;48.072;11.682;2022-09-09T14:03:40;19.70;99.90
21473;DHT22;10898;48.072;11.682;2022-09-09T14:05:44;19.60;99.90
21473;DHT22;10898;48.072;11.682;2022-09-09T14:07:48;19.60;99.90
21473;DHT22;10898;48.072;11.682;2022-09-09T14:09:54;19.60;99.90
21473;DHT22;10898;48.072;11.682;2022-09-09T14:11:55;19.50;99.90
21473;DHT22;10898;48.072;11.682;2022-09-09T14:13:57;19.50;99.90
21473;DHT22;10898;48.072;11.682;2022-09-09T14:15:59;19.50;99.90
21473;DHT22;10898;48.072;11.682;2022-09-09T14:18:03;19.40;99.90
21473;DHT22;10898;48.072;11.682;2022-09-09T14:20:06;19.40;99.90
21473;DHT22;10898;48.072;11.682;2022-09-09T14:22:11;19.40;99.90
21473;DHT22;10898;48.072;11.682;2022-09-09T14:24:15;19.40;99.90
21473;DHT22;10898;48.072;11.682;2022-09-09T14:26:20;19.40;99.90
21473;DHT22;10898;48.072;11.682;2022-09-09T14:28:22;19.40;99.90
21473;DHT22;10898;48.072;11.682;2022-09-09T14:30:44;19.40;99.90
21473;DHT22;10898;48.072;11.682;2022-09-09T14:32:46;19.40;99.90
21473;DHT22;10898;48.072;11.682;2022-09-09T14:34:48;19.40;99.90
21473;DHT22;10898;48.072;11.682;2022-09-09T14:36:52;19.50;99.90
21473;DHT22;10898;48.072;11.682;2022-09-09T14:38:54;19.50;99.90
21473;DHT22;10898;48.072;11.682;2022-09-09T14:40:56;19.50;99.90
21473;DHT22;10898;48.072;11.682;2022-09-09T14:42:58;19.50;99.90